Wetterdaten: Woche 01.08.16 - 07.08.16 (KW31)
Datum Zeit Temp. A. Feuchte A. Luftdruck Regen Wind Richtung Sonnenschein ET UV Solar Taupunkt Windchill Windben Empfang
01.08.2016 00:00 18,1 C 89 % 1013,0 hPa 0,0 l/m 9,8 km/h (2 Bft) SW 0,00 h 0,000 mm 0,0 UV-I 0 W/m 16,3 C 16,7 C 14,9 km/h (3 Bft) 98,19 %
01.08.2016 01:00 18,0 C 89 % 1013,2 hPa 0,0 l/m 7,4 km/h (2 Bft) W-SW 0,00 h 0,025 mm 0,0 UV-I 0 W/m 16,2 C 17,5 C 11,3 km/h (2 Bft) 99,44 %
01.08.2016 02:00 18,3 C 89 % 1013,6 hPa 0,0 l/m 6,7 km/h (2 Bft) W-SW 0,00 h 0,026 mm 0,0 UV-I 0 W/m 16,5 C 18,0 C 10,5 km/h (2 Bft) 98,03 %
01.08.2016 03:00 18,2 C 88 % 1014,0 hPa 0,0 l/m 6,8 km/h (2 Bft) W-SW 0,00 h 0,025 mm 0,0 UV-I 0 W/m 16,1 C 17,9 C 11,1 km/h (2 Bft) 99,52 %
01.08.2016 04:00 17,9 C 88 % 1014,1 hPa 0,0 l/m 8,5 km/h (2 Bft) W-SW 0,00 h 0,026 mm 0,0 UV-I 0 W/m 15,8 C 17,0 C 13,7 km/h (3 Bft) 98,19 %
01.08.2016 05:00 17,8 C 88 % 1014,6 hPa 0,0 l/m 8,2 km/h (2 Bft) W-SW 0,00 h 0,025 mm 0,0 UV-I 6 W/m 15,8 C 17,0 C 12,9 km/h (3 Bft) 99,47 %
01.08.2016 06:00 17,6 C 88 % 1015,1 hPa 0,0 l/m 7,7 km/h (2 Bft) W-SW 0,00 h 0,025 mm 0,0 UV-I 34 W/m 15,5 C 16,9 C 13,0 km/h (3 Bft) 98,07 %
01.08.2016 07:00 17,7 C 85 % 1015,5 hPa 0,0 l/m 12,8 km/h (3 Bft) W-SW 0,63 h 0,026 mm 0,6 UV-I 178 W/m 15,2 C 15,2 C 20,2 km/h (4 Bft) 99,24 %
01.08.2016 08:00 18,3 C 80 % 1016,1 hPa 0,0 l/m 12,8 km/h (3 Bft) W-SW 0,57 h 0,127 mm 1,1 UV-I 258 W/m 14,9 C 15,9 C 20,2 km/h (4 Bft) 98,26 %
01.08.2016 09:00 18,7 C 76 % 1016,5 hPa 0,0 l/m 9,2 km/h (2 Bft) W 0,27 h 0,178 mm 1,7 UV-I 281 W/m 14,5 C 17,6 C 16,7 km/h (3 Bft) 99,17 %
01.08.2016 10:00 20,1 C 67 % 1016,7 hPa 0,0 l/m 11,2 km/h (2 Bft) W-SW 0,93 h 0,203 mm 3,8 UV-I 640 W/m 13,8 C 18,4 C 19,4 km/h (3 Bft) 98,05 %
01.08.2016 11:00 20,9 C 58 % 1017,0 hPa 0,0 l/m 10,9 km/h (2 Bft) W-SW 0,87 h 0,432 mm 5,1 UV-I 783 W/m 12,4 C 19,4 C 18,8 km/h (3 Bft) 99,39 %
01.08.2016 12:00 21,0 C 59 % 1017,3 hPa 0,0 l/m 9,1 km/h (2 Bft) W-SW 0,77 h 0,508 mm 4,8 UV-I 575 W/m 12,8 C 20,1 C 15,8 km/h (3 Bft) 97,69 %
01.08.2016 13:00 21,8 C 55 % 1017,2 hPa 0,0 l/m 9,5 km/h (2 Bft) W 0,97 h 0,406 mm 5,6 UV-I 785 W/m 12,4 C 20,8 C 17,4 km/h (3 Bft) 99,32 %
01.08.2016 14:00 22,2 C 54 % 1017,1 hPa 0,0 l/m 7,5 km/h (2 Bft) W-SW 0,50 h 0,533 mm 4,1 UV-I 556 W/m 12,4 C 21,6 C 14,3 km/h (3 Bft) 98,32 %
01.08.2016 15:00 22,2 C 53 % 1017,0 hPa 0,0 l/m 6,5 km/h (2 Bft) W-SW 0,23 h 0,407 mm 2,9 UV-I 357 W/m 12,2 C 21,8 C 12,3 km/h (3 Bft) 99,64 %
01.08.2016 16:00 22,9 C 50 % 1016,9 hPa 0,0 l/m 7,8 km/h (2 Bft) W-SW 0,83 h 0,279 mm 2,7 UV-I 553 W/m 11,8 C 22,5 C 15,6 km/h (3 Bft) 98,12 %
01.08.2016 17:00 22,9 C 48 % 1016,8 hPa 0,0 l/m 8,9 km/h (2 Bft) W-SW 0,77 h 0,407 mm 1,5 UV-I 391 W/m 11,4 C 22,1 C 16,0 km/h (3 Bft) 99,32 %
01.08.2016 18:00 22,5 C 48 % 1016,7 hPa 0,0 l/m 5,8 km/h (2 Bft) W-SW 0,80 h 0,304 mm 0,7 UV-I 243 W/m 11,0 C 22,4 C 11,2 km/h (2 Bft) 98,45 %
01.08.2016 19:00 21,7 C 52 % 1016,7 hPa 0,0 l/m 3,2 km/h (1 Bft) W-SW 0,50 h 0,204 mm 0,0 UV-I 97 W/m 11,3 C 21,7 C 6,6 km/h (2 Bft) 99,13 %
01.08.2016 20:00 19,4 C 63 % 1016,9 hPa 0,0 l/m 0,6 km/h (0 Bft) NW 0,10 h 0,076 mm 0,0 UV-I 14 W/m 12,2 C 19,4 C 1,8 km/h (1 Bft) 97,99 %
01.08.2016 21:00 17,1 C 76 % 1017,5 hPa 0,0 l/m 1,2 km/h (1 Bft) SW 0,00 h 0,025 mm 0,0 UV-I 0 W/m 12,8 C 17,1 C 2,5 km/h (1 Bft) 99,21 %
01.08.2016 22:00 16,6 C 79 % 1018,0 hPa 0,0 l/m 2,7 km/h (1 Bft) S 0,00 h 0,000 mm 0,0 UV-I 0 W/m 12,8 C 16,6 C 4,7 km/h (1 Bft) 98,45 %
01.08.2016 23:00 16,5 C 82 % 1018,0 hPa 0,0 l/m 3,6 km/h (1 Bft) S 0,00 h 0,000 mm 0,0 UV-I 0 W/m 13,4 C 16,5 C 6,4 km/h (2 Bft) 99,08 %
02.08.2016 00:00 15,6 C 85 % 1018,2 hPa 0,0 l/m 5,0 km/h (1 Bft) S 0,00 h 0,000 mm 0,0 UV-I 0 W/m 13,0 C 15,5 C 7,3 km/h (2 Bft) 98,52 %
02.08.2016 01:00 14,8 C 87 % 1018,1 hPa 0,0 l/m 4,6 km/h (1 Bft) S 0,00 h 0,025 mm 0,0 UV-I 0 W/m 12,6 C 14,8 C 7,0 km/h (2 Bft) 98,78 %
02.08.2016 02:00 14,0 C 88 % 1018,0 hPa 0,0 l/m 3,4 km/h (1 Bft) S-SW 0,00 h 0,000 mm 0,0 UV-I 0 W/m 12,1 C 14,0 C 5,0 km/h (1 Bft) 98,74 %
02.08.2016 03:00 13,1 C 91 % 1017,8 hPa 0,0 l/m 0,6 km/h (0 Bft) S-SW 0,00 h 0,000 mm 0,0 UV-I 0 W/m 11,6 C 13,1 C 1,5 km/h (1 Bft) 98,91 %
02.08.2016 04:00 12,3 C 92 % 1017,8 hPa 0,0 l/m 0,8 km/h (0 Bft) S-SW 0,00 h 0,000 mm 0,0 UV-I 0 W/m 11,1 C 12,3 C 1,8 km/h (1 Bft) 97,77 %
02.08.2016 05:00 11,7 C 93 % 1017,7 hPa 0,0 l/m 0,6 km/h (0 Bft) S-SW 0,00 h 0,000 mm 0,0 UV-I 8 W/m 10,7 C 11,7 C 1,4 km/h (1 Bft) 98,67 %
02.08.2016 06:00 12,1 C 94 % 1017,8 hPa 0,0 l/m 0,6 km/h (0 Bft) S-SW 0,07 h 0,000 mm 0,0 UV-I 40 W/m 11,1 C 12,1 C 1,1 km/h (1 Bft) 98,41 %
02.08.2016 07:00 14,5 C 88 % 1018,0 hPa 0,0 l/m 1,0 km/h (0 Bft) S-SW 0,70 h 0,026 mm 0,6 UV-I 174 W/m 12,5 C 14,5 C 2,6 km/h (1 Bft) 98,78 %
02.08.2016 08:00 16,5 C 81 % 1018,0 hPa 0,0 l/m 1,8 km/h (1 Bft) S-SW 1,00 h 0,101 mm 1,2 UV-I 335 W/m 13,2 C 16,5 C 3,6 km/h (1 Bft) 97,87 %
02.08.2016 09:00 18,6 C 74 % 1017,9 hPa 0,0 l/m 3,5 km/h (1 Bft) NO 1,00 h 0,178 mm 2,3 UV-I 451 W/m 13,9 C 18,6 C 6,3 km/h (2 Bft) 99,51 %
02.08.2016 10:00 20,2 C 67 % 1017,7 hPa 0,0 l/m 3,5 km/h (1 Bft) NO 1,00 h 0,280 mm 3,7 UV-I 647 W/m 13,9 C 20,1 C 6,5 km/h (2 Bft) 98,68 %
02.08.2016 11:00 21,7 C 60 % 1017,3 hPa 0,0 l/m 3,9 km/h (1 Bft) NO 0,97 h 0,381 mm 5,1 UV-I 729 W/m 13,6 C 21,7 C 7,6 km/h (2 Bft) 99,01 %
02.08.2016 12:00 22,7 C 54 % 1016,8 hPa 0,0 l/m 2,8 km/h (1 Bft) S-SO 0,73 h 0,457 mm 5,3 UV-I 662 W/m 12,9 C 22,6 C 6,4 km/h (2 Bft) 98,26 %
02.08.2016 13:00 22,9 C 51 % 1016,5 hPa 0,0 l/m 4,4 km/h (1 Bft) W 0,27 h 0,406 mm 3,8 UV-I 456 W/m 12,1 C 22,9 C 7,7 km/h (2 Bft) 99,04 %
02.08.2016 14:00 23,7 C 48 % 1015,9 hPa 0,0 l/m 6,1 km/h (2 Bft) S-SW 0,47 h 0,305 mm 3,8 UV-I 514 W/m 12,1 C 23,5 C 10,8 km/h (2 Bft) 98,57 %
02.08.2016 15:00 24,0 C 48 % 1015,5 hPa 0,0 l/m 10,2 km/h (2 Bft) SW 0,33 h 0,381 mm 2,5 UV-I 388 W/m 12,1 C 23,0 C 17,3 km/h (3 Bft) 98,54 %
02.08.2016 16:00 23,8 C 47 % 1015,3 hPa 0,0 l/m 7,1 km/h (2 Bft) W-SW 0,25 h 0,330 mm 1,7 UV-I 288 W/m 11,8 C 23,5 C 13,0 km/h (3 Bft) 97,75 %
02.08.2016 17:00 23,1 C 52 % 1015,1 hPa 0,0 l/m 3,6 km/h (1 Bft) NW 0,00 h 0,229 mm 0,6 UV-I 143 W/m 12,7 C 23,1 C 9,5 km/h (2 Bft) 99,85 %
02.08.2016 18:00 21,8 C 61 % 1015,2 hPa 0,0 l/m 2,7 km/h (1 Bft) N-NW 0,00 h 0,127 mm 0,0 UV-I 62 W/m 13,9 C 21,8 C 6,8 km/h (2 Bft) 98,47 %
02.08.2016 19:00 19,7 C 73 % 1015,8 hPa 0,0 l/m 4,4 km/h (1 Bft) NW 0,00 h 0,051 mm 0,0 UV-I 15 W/m 14,7 C 19,6 C 10,6 km/h (2 Bft) 97,66 %
02.08.2016 20:00 18,7 C 80 % 1016,3 hPa 0,0 l/m 2,4 km/h (1 Bft) SW 0,00 h 0,025 mm 0,0 UV-I 6 W/m 15,1 C 18,6 C 4,8 km/h (1 Bft) 98,88 %
02.08.2016 21:00 17,8 C 86 % 1016,9 hPa 0,2 l/m 2,0 km/h (1 Bft) SW 0,00 h 0,000 mm 0,0 UV-I 0 W/m 15,3 C 17,7 C 4,3 km/h (1 Bft) 98,06 %
02.08.2016 22:00 17,0 C 91 % 1017,3 hPa 1,2 l/m 9,7 km/h (2 Bft) SW 0,00 h 0,000 mm 0,0 UV-I 0 W/m 15,4 C 15,4 C 15,7 km/h (3 Bft) 99,00 %
02.08.2016 23:00 16,6 C 94 % 1017,4 hPa 0,4 l/m 11,1 km/h (2 Bft) SW 0,00 h 0,025 mm 0,0 UV-I 0 W/m 15,6 C 14,6 C 17,4 km/h (3 Bft) 98,25 %
03.08.2016 00:00 16,6 C 93 % 1017,5 hPa 0,6 l/m 9,7 km/h (2 Bft) SW 0,00 h 0,000 mm 0,0 UV-I 0 W/m 15,5 C 14,9 C 16,4 km/h (3 Bft) 99,10 %
03.08.2016 01:00 16,0 C 95 % 1017,7 hPa 0,8 l/m 5,5 km/h (1 Bft) SW 0,00 h 0,000 mm 0,0 UV-I 0 W/m 15,2 C 15,9 C 9,4 km/h (2 Bft) 98,34 %
03.08.2016 02:00 16,2 C 96 % 1017,8 hPa 0,4 l/m 10,2 km/h (2 Bft) W-SW 0,00 h 0,000 mm 0,0 UV-I 0 W/m 15,6 C 14,5 C 16,3 km/h (3 Bft) 98,80 %
03.08.2016 03:00 16,3 C 96 % 1017,5 hPa 0,0 l/m 6,7 km/h (2 Bft) SW 0,00 h 0,000 mm 0,0 UV-I 0 W/m 15,7 C 16,0 C 10,8 km/h (2 Bft) 98,19 %
03.08.2016 04:00 16,3 C 96 % 1017,1 hPa 0,0 l/m 6,4 km/h (2 Bft) SW 0,00 h 0,000 mm 0,0 UV-I 0 W/m 15,6 C 16,1 C 10,2 km/h (2 Bft) 99,03 %
03.08.2016 05:00 16,4 C 95 % 1016,9 hPa 0,0 l/m 7,0 km/h (2 Bft) SW 0,00 h 0,000 mm 0,0 UV-I 7 W/m 15,6 C 15,9 C 11,3 km/h (2 Bft) 98,08 %
03.08.2016 06:00 16,5 C 95 % 1017,0 hPa 0,0 l/m 4,9 km/h (1 Bft) SW 0,00 h 0,000 mm 0,0 UV-I 30 W/m 15,6 C 16,5 C 7,3 km/h (2 Bft) 99,20 %
03.08.2016 07:00 17,0 C 93 % 1017,0 hPa 0,0 l/m 5,2 km/h (1 Bft) W-SW 0,00 h 0,025 mm 0,0 UV-I 84 W/m 15,9 C 16,9 C 8,4 km/h (2 Bft) 98,23 %
03.08.2016 08:00 18,2 C 89 % 1016,6 hPa 0,0 l/m 5,4 km/h (1 Bft) W-SW 0,40 h 0,051 mm 1,1 UV-I 230 W/m 16,3 C 18,0 C 9,3 km/h (2 Bft) 98,90 %
03.08.2016 09:00 20,0 C 79 % 1016,3 hPa 0,0 l/m 6,8 km/h (2 Bft) W-SW 1,00 h 0,153 mm 2,6 UV-I 473 W/m 16,2 C 19,6 C 12,1 km/h (2 Bft) 97,96 %
03.08.2016 10:00 21,2 C 71 % 1015,9 hPa 0,0 l/m 4,9 km/h (1 Bft) SW 1,00 h 0,304 mm 4,2 UV-I 660 W/m 15,7 C 21,0 C 8,9 km/h (2 Bft) 99,25 %
03.08.2016 11:00 22,5 C 66 % 1015,6 hPa 0,0 l/m 3,9 km/h (1 Bft) W 1,00 h 0,407 mm 5,4 UV-I 727 W/m 15,7 C 22,5 C 7,8 km/h (2 Bft) 98,36 %
03.08.2016 12:00 23,8 C 61 % 1015,1 hPa 0,0 l/m 6,6 km/h (2 Bft) W-SW 0,97 h 0,457 mm 5,8 UV-I 708 W/m 15,8 C 23,5 C 12,4 km/h (3 Bft) 99,53 %
03.08.2016 13:00 24,7 C 58 % 1014,5 hPa 0,0 l/m 5,2 km/h (1 Bft) W 0,93 h 0,483 mm 6,0 UV-I 731 W/m 15,8 C 24,6 C 10,0 km/h (2 Bft) 97,94 %
03.08.2016 14:00 25,8 C 55 % 1013,8 hPa 0,0 l/m 3,6 km/h (1 Bft) W-SW 1,00 h 0,482 mm 5,7 UV-I 756 W/m 16,2 C 25,8 C 7,3 km/h (2 Bft) 99,18 %
03.08.2016 15:00 26,5 C 53 % 1013,2 hPa 0,0 l/m 4,0 km/h (1 Bft) SW 1,00 h 0,508 mm 4,6 UV-I 679 W/m 16,2 C 26,5 C 8,5 km/h (2 Bft) 98,46 %
03.08.2016 16:00 27,4 C 51 % 1012,7 hPa 0,0 l/m 3,5 km/h (1 Bft) NO 1,00 h 0,457 mm 3,1 UV-I 579 W/m 16,2 C 27,3 C 6,8 km/h (2 Bft) 99,32 %
03.08.2016 17:00 27,6 C 51 % 1012,3 hPa 0,0 l/m 3,3 km/h (1 Bft) NW 0,97 h 0,407 mm 1,6 UV-I 384 W/m 16,4 C 27,6 C 6,4 km/h (2 Bft) 98,02 %
03.08.2016 18:00 27,1 C 54 % 1012,1 hPa 0,0 l/m 5,3 km/h (1 Bft) N-NO 1,00 h 0,279 mm 0,8 UV-I 278 W/m 16,9 C 27,1 C 9,0 km/h (2 Bft) 99,48 %
03.08.2016 19:00 26,2 C 57 % 1012,0 hPa 0,0 l/m 4,2 km/h (1 Bft) NO 0,63 h 0,229 mm 0,0 UV-I 98 W/m 17,0 C 26,2 C 6,2 km/h (2 Bft) 98,36 %
03.08.2016 20:00 24,1 C 67 % 1012,1 hPa 0,0 l/m 5,3 km/h (1 Bft) O 0,00 h 0,101 mm 0,0 UV-I 12 W/m 17,6 C 24,0 C 8,7 km/h (2 Bft) 99,44 %
03.08.2016 21:00 22,5 C 75 % 1012,5 hPa 0,0 l/m 5,4 km/h (1 Bft) O 0,00 h 0,051 mm 0,0 UV-I 0 W/m 17,7 C 22,3 C 9,0 km/h (2 Bft) 98,46 %
03.08.2016 22:00 21,2 C 80 % 1012,5 hPa 0,0 l/m 2,1 km/h (1 Bft) O-SO 0,00 h 0,026 mm 0,0 UV-I 0 W/m 17,6 C 21,2 C 4,4 km/h (1 Bft) 99,37 %
03.08.2016 23:00 19,6 C 87 % 1012,5 hPa 0,0 l/m 1,9 km/h (1 Bft) S 0,00 h 0,000 mm 0,0 UV-I 0 W/m 17,4 C 19,6 C 3,4 km/h (1 Bft) 98,11 %
04.08.2016 00:00 18,6 C 90 % 1012,7 hPa 0,0 l/m 0,5 km/h (0 Bft) S 0,00 h 0,000 mm 0,0 UV-I 0 W/m 17,0 C 18,6 C 1,4 km/h (1 Bft) 99,23 %
04.08.2016 01:00 18,0 C 91 % 1012,8 hPa 0,0 l/m 2,1 km/h (1 Bft) S 0,00 h 0,000 mm 0,0 UV-I 0 W/m 16,5 C 18,0 C 3,6 km/h (1 Bft) 98,35 %
04.08.2016 02:00 18,2 C 87 % 1012,8 hPa 0,0 l/m 3,7 km/h (1 Bft) S 0,00 h 0,000 mm 0,0 UV-I 0 W/m 16,1 C 18,2 C 5,4 km/h (1 Bft) 99,36 %
04.08.2016 03:00 18,8 C 86 % 1012,8 hPa 0,0 l/m 4,9 km/h (1 Bft) S-SW 0,00 h 0,000 mm 0,0 UV-I 0 W/m 16,4 C 18,8 C 7,3 km/h (2 Bft) 98,19 %
04.08.2016 04:00 19,1 C 86 % 1012,8 hPa 0,0 l/m 2,9 km/h (1 Bft) S-SW 0,00 h 0,025 mm 0,0 UV-I 0 W/m 16,7 C 19,1 C 4,5 km/h (1 Bft) 99,35 %
04.08.2016 05:00 18,5 C 89 % 1012,7 hPa 0,0 l/m 1,8 km/h (1 Bft) S-SW 0,00 h 0,000 mm 0,0 UV-I 5 W/m 16,6 C 18,5 C 2,8 km/h (1 Bft) 98,10 %
04.08.2016 06:00 17,8 C 92 % 1012,7 hPa 0,0 l/m 0,7 km/h (0 Bft) SO 0,00 h 0,000 mm 0,0 UV-I 30 W/m 16,6 C 17,8 C 1,7 km/h (1 Bft) 98,96 %
04.08.2016 07:00 18,9 C 90 % 1012,9 hPa 0,0 l/m 1,8 km/h (1 Bft) NO 0,60 h 0,026 mm 0,6 UV-I 163 W/m 17,2 C 18,9 C 3,3 km/h (1 Bft) 98,22 %
04.08.2016 08:00 21,1 C 81 % 1012,8 hPa 0,0 l/m 4,2 km/h (1 Bft) NO 0,63 h 0,101 mm 1,2 UV-I 286 W/m 17,8 C 21,1 C 6,7 km/h (2 Bft) 98,64 %
04.08.2016 09:00 22,7 C 76 % 1012,7 hPa 0,0 l/m 5,4 km/h (1 Bft) O-NO 0,63 h 0,178 mm 2,2 UV-I 438 W/m 18,2 C 22,6 C 8,6 km/h (2 Bft) 98,14 %
04.08.2016 10:00 24,0 C 70 % 1012,6 hPa 0,0 l/m 7,6 km/h (2 Bft) O-NO 0,47 h 0,280 mm 2,8 UV-I 441 W/m 18,2 C 23,7 C 12,2 km/h (2 Bft) 98,53 %
04.08.2016 11:00 24,0 C 69 % 1012,5 hPa 0,0 l/m 6,9 km/h (2 Bft) O-NO 0,00 h 0,304 mm 2,3 UV-I 310 W/m 18,1 C 23,8 C 11,2 km/h (2 Bft) 98,80 %
04.08.2016 12:00 24,8 C 67 % 1012,1 hPa 0,0 l/m 6,6 km/h (2 Bft) O-NO 0,00 h 0,229 mm 2,5 UV-I 314 W/m 18,2 C 24,6 C 10,6 km/h (2 Bft) 98,59 %
04.08.2016 13:00 26,1 C 66 % 1011,6 hPa 0,0 l/m 5,5 km/h (1 Bft) NO 0,57 h 0,229 mm 4,3 UV-I 534 W/m 19,2 C 26,0 C 10,0 km/h (2 Bft) 98,90 %
04.08.2016 14:00 28,2 C 57 % 1011,0 hPa 0,0 l/m 6,0 km/h (2 Bft) NO 0,93 h 0,406 mm 5,6 UV-I 741 W/m 18,7 C 28,1 C 11,4 km/h (2 Bft) 98,14 %
04.08.2016 15:00 28,3 C 52 % 1010,6 hPa 0,0 l/m 5,7 km/h (1 Bft) N-NO 0,60 h 0,533 mm 3,8 UV-I 494 W/m 17,5 C 28,3 C 10,6 km/h (2 Bft) 98,78 %
04.08.2016 16:00 29,3 C 48 % 1010,1 hPa 0,0 l/m 6,2 km/h (2 Bft) N-NO 1,00 h 0,407 mm 3,0 UV-I 599 W/m 17,1 C 29,2 C 11,6 km/h (2 Bft) 97,93 %
04.08.2016 17:00 28,9 C 45 % 1009,4 hPa 0,0 l/m 8,0 km/h (2 Bft) O-NO 0,67 h 0,457 mm 1,5 UV-I 356 W/m 15,7 C 28,7 C 12,5 km/h (3 Bft) 99,36 %
04.08.2016 18:00 28,4 C 47 % 1008,7 hPa 0,0 l/m 9,1 km/h (2 Bft) O-NO 0,90 h 0,305 mm 0,7 UV-I 248 W/m 15,8 C 28,0 C 14,2 km/h (3 Bft) 98,21 %
04.08.2016 19:00 27,4 C 49 % 1008,0 hPa 0,0 l/m 5,7 km/h (1 Bft) O-NO 0,47 h 0,254 mm 0,0 UV-I 87 W/m 15,5 C 27,3 C 9,0 km/h (2 Bft) 99,32 %
04.08.2016 20:00 24,9 C 58 % 1007,3 hPa 0,0 l/m 2,9 km/h (1 Bft) O-NO 0,00 h 0,101 mm 0,0 UV-I 10 W/m 15,9 C 24,9 C 4,6 km/h (1 Bft) 98,25 %
04.08.2016 21:00 23,3 C 65 % 1006,8 hPa 0,0 l/m 3,6 km/h (1 Bft) O-NO 0,00 h 0,026 mm 0,0 UV-I 0 W/m 16,4 C 23,3 C 5,4 km/h (1 Bft) 99,11 %
04.08.2016 22:00 22,3 C 72 % 1006,2 hPa 0,0 l/m 2,8 km/h (1 Bft) O-NO 0,00 h 0,025 mm 0,0 UV-I 0 W/m 16,9 C 22,3 C 4,4 km/h (1 Bft) 98,27 %
04.08.2016 23:00 21,7 C 79 % 1005,6 hPa 0,0 l/m 5,7 km/h (1 Bft) O-NO 0,00 h 0,026 mm 0,0 UV-I 0 W/m 17,9 C 21,7 C 8,1 km/h (2 Bft) 99,24 %
05.08.2016 00:00 21,3 C 83 % 1004,9 hPa 0,0 l/m 8,2 km/h (2 Bft) O-NO 0,00 h 0,000 mm 0,0 UV-I 0 W/m 18,2 C 20,6 C 12,2 km/h (2 Bft) 98,02 %
05.08.2016 01:00 20,5 C 83 % 1004,8 hPa 0,0 l/m 4,3 km/h (1 Bft) O-NO 0,00 h 0,025 mm 0,0 UV-I 0 W/m 17,4 C 20,3 C 7,3 km/h (2 Bft) 99,34 %
05.08.2016 02:00 20,0 C 85 % 1007,0 hPa 0,0 l/m 18,2 km/h (3 Bft) SW 0,00 h 0,026 mm 0,0 UV-I 0 W/m 17,4 C 16,7 C 27,9 km/h (4 Bft) 98,36 %
05.08.2016 03:00 20,1 C 78 % 1008,7 hPa 0,0 l/m 25,8 km/h (4 Bft) W-SW 0,00 h 0,051 mm 0,0 UV-I 0 W/m 16,2 C 15,5 C 39,1 km/h (6 Bft) 99,26 %
05.08.2016 04:00 18,5 C 78 % 1009,6 hPa 0,0 l/m 20,3 km/h (4 Bft) W-SW 0,00 h 0,076 mm 0,0 UV-I 0 W/m 14,6 C 14,3 C 31,7 km/h (5 Bft) 98,11 %
05.08.2016 05:00 18,3 C 77 % 1010,2 hPa 0,0 l/m 14,5 km/h (3 Bft) W-SW 0,00 h 0,051 mm 0,0 UV-I 6 W/m 14,3 C 15,4 C 21,5 km/h (4 Bft) 99,49 %
05.08.2016 06:00 18,1 C 81 % 1010,6 hPa 0,0 l/m 12,1 km/h (2 Bft) W-SW 0,00 h 0,050 mm 0,0 UV-I 17 W/m 14,7 C 15,8 C 18,8 km/h (3 Bft) 97,54 %
05.08.2016 07:00 18,2 C 82 % 1010,9 hPa 0,0 l/m 9,0 km/h (2 Bft) W-SW 0,10 h 0,051 mm 0,0 UV-I 76 W/m 15,1 C 17,0 C 15,3 km/h (3 Bft) 99,35 %
05.08.2016 08:00 18,0 C 84 % 1011,2 hPa 0,0 l/m 11,3 km/h (2 Bft) W-SW 0,00 h 0,076 mm 0,0 UV-I 39 W/m 15,3 C 15,9 C 17,7 km/h (3 Bft) 98,12 %
05.08.2016 09:00 16,8 C 93 % 1011,7 hPa 1,0 l/m 7,4 km/h (2 Bft) W-SW 0,00 h 0,051 mm 0,6 UV-I 63 W/m 15,7 C 16,1 C 12,2 km/h (2 Bft) 99,23 %
05.08.2016 10:00 16,8 C 95 % 1011,8 hPa 0,6 l/m 5,2 km/h (1 Bft) W-SW 0,00 h 0,051 mm 0,5 UV-I 74 W/m 15,9 C 16,7 C 9,0 km/h (2 Bft) 98,20 %
05.08.2016 11:00 16,6 C 95 % 1012,4 hPa 1,2 l/m 6,4 km/h (2 Bft) W-SW 0,00 h 0,051 mm 0,7 UV-I 84 W/m 15,8 C 16,3 C 10,6 km/h (2 Bft) 99,34 %
05.08.2016 12:00 16,4 C 95 % 1013,2 hPa 1,0 l/m 7,1 km/h (2 Bft) W-SW 0,00 h 0,051 mm 1,1 UV-I 109 W/m 15,6 C 15,8 C 12,4 km/h (3 Bft) 97,86 %
05.08.2016 13:00 15,7 C 95 % 1013,7 hPa 1,8 l/m 9,1 km/h (2 Bft) W-SW 0,00 h 0,050 mm 0,7 UV-I 94 W/m 14,8 C 14,3 C 15,5 km/h (3 Bft) 99,48 %
05.08.2016 14:00 15,8 C 96 % 1014,5 hPa 3,0 l/m 10,8 km/h (2 Bft) W-SW 0,00 h 0,051 mm 0,6 UV-I 88 W/m 15,1 C 13,7 C 16,5 km/h (3 Bft) 97,97 %
05.08.2016 15:00 15,8 C 96 % 1015,3 hPa 2,2 l/m 11,3 km/h (2 Bft) SW 0,00 h 0,051 mm 0,5 UV-I 78 W/m 15,1 C 13,5 C 17,5 km/h (3 Bft) 99,09 %
05.08.2016 16:00 15,7 C 96 % 1015,9 hPa 2,6 l/m 11,1 km/h (2 Bft) SW 0,00 h 0,051 mm 0,4 UV-I 74 W/m 15,1 C 13,5 C 17,8 km/h (3 Bft) 98,12 %
05.08.2016 17:00 15,6 C 96 % 1016,4 hPa 2,4 l/m 8,1 km/h (2 Bft) W-SW 0,00 h 0,051 mm 0,0 UV-I 68 W/m 14,8 C 14,6 C 13,8 km/h (3 Bft) 99,64 %
05.08.2016 18:00 15,4 C 95 % 1016,9 hPa 0,8 l/m 9,6 km/h (2 Bft) W-SW 0,00 h 0,050 mm 0,0 UV-I 51 W/m 14,7 C 13,8 C 16,1 km/h (3 Bft) 97,95 %
05.08.2016 19:00 14,8 C 95 % 1017,8 hPa 2,4 l/m 8,0 km/h (2 Bft) SW 0,00 h 0,026 mm 0,0 UV-I 7 W/m 14,1 C 13,8 C 13,3 km/h (3 Bft) 99,37 %
05.08.2016 20:00 14,1 C 96 % 1018,7 hPa 1,6 l/m 10,5 km/h (2 Bft) SW 0,00 h 0,000 mm 0,0 UV-I 4 W/m 13,5 C 11,9 C 19,2 km/h (3 Bft) 98,68 %
05.08.2016 21:00 13,9 C 95 % 1019,7 hPa 3,2 l/m 13,4 km/h (3 Bft) SW 0,00 h 0,000 mm 0,0 UV-I 0 W/m 13,1 C 10,6 C 24,1 km/h (4 Bft) 99,42 %
05.08.2016 22:00 13,5 C 95 % 1020,2 hPa 2,6 l/m 12,8 km/h (3 Bft) SW 0,00 h 0,000 mm 0,0 UV-I 0 W/m 12,7 C 10,2 C 19,9 km/h (4 Bft) 98,35 %
05.08.2016 23:00 13,2 C 95 % 1020,5 hPa 3,4 l/m 12,3 km/h (3 Bft) SW 0,00 h 0,000 mm 0,0 UV-I 0 W/m 12,4 C 10,2 C 18,7 km/h (3 Bft) 99,64 %
06.08.2016 00:00 13,2 C 96 % 1020,9 hPa 0,2 l/m 10,0 km/h (2 Bft) W-SW 0,00 h 0,000 mm 0,0 UV-I 0 W/m 12,6 C 11,3 C 15,4 km/h (3 Bft) 98,09 %
06.08.2016 01:00 13,1 C 96 % 1021,6 hPa 1,4 l/m 5,9 km/h (2 Bft) W-SW 0,00 h 0,000 mm 0,0 UV-I 0 W/m 12,4 C 12,7 C 9,8 km/h (2 Bft) 99,51 %
06.08.2016 02:00 12,9 C 96 % 1022,2 hPa 0,6 l/m 8,5 km/h (2 Bft) SW 0,00 h 0,000 mm 0,0 UV-I 0 W/m 12,3 C 11,7 C 13,6 km/h (3 Bft) 98,46 %
06.08.2016 03:00 12,8 C 95 % 1021,9 hPa 0,0 l/m 9,4 km/h (2 Bft) W-SW 0,00 h 0,000 mm 0,0 UV-I 0 W/m 12,1 C 11,1 C 14,6 km/h (3 Bft) 99,56 %
06.08.2016 04:00 12,9 C 96 % 1022,0 hPa 0,0 l/m 7,9 km/h (2 Bft) W-SW 0,00 h 0,000 mm 0,0 UV-I 0 W/m 12,2 C 12,0 C 12,8 km/h (3 Bft) 97,49 %
06.08.2016 05:00 13,2 C 95 % 1022,2 hPa 0,0 l/m 8,1 km/h (2 Bft) W-SW 0,00 h 0,000 mm 0,0 UV-I 0 W/m 12,4 C 12,1 C 12,2 km/h (2 Bft) 99,08 %
06.08.2016 06:00 13,3 C 95 % 1022,7 hPa 0,0 l/m 7,2 km/h (2 Bft) W-SW 0,00 h 0,000 mm 0,0 UV-I 19 W/m 12,5 C 12,7 C 11,5 km/h (2 Bft) 97,49 %
06.08.2016 07:00 13,8 C 93 % 1023,3 hPa 0,0 l/m 6,6 km/h (2 Bft) W-SW 0,00 h 0,025 mm 0,0 UV-I 65 W/m 12,8 C 13,5 C 10,6 km/h (2 Bft) 99,64 %
06.08.2016 08:00 14,6 C 90 % 1023,4 hPa 0,0 l/m 8,8 km/h (2 Bft) W-SW 0,00 h 0,051 mm 0,5 UV-I 144 W/m 13,1 C 13,3 C 14,0 km/h (3 Bft) 98,01 %
06.08.2016 09:00 15,2 C 89 % 1023,8 hPa 0,0 l/m 8,0 km/h (2 Bft) W-SW 0,00 h 0,076 mm 0,8 UV-I 155 W/m 13,4 C 14,3 C 13,2 km/h (3 Bft) 99,29 %
06.08.2016 10:00 15,8 C 88 % 1024,0 hPa 0,0 l/m 6,6 km/h (2 Bft) W-SW 0,00 h 0,102 mm 1,3 UV-I 225 W/m 13,7 C 15,3 C 11,9 km/h (2 Bft) 98,22 %
06.08.2016 11:00 16,5 C 86 % 1024,4 hPa 0,0 l/m 5,5 km/h (1 Bft) W-SW 0,17 h 0,127 mm 1,7 UV-I 238 W/m 14,2 C 16,1 C 10,2 km/h (2 Bft) 99,25 %
06.08.2016 12:00 17,6 C 83 % 1024,6 hPa 0,0 l/m 4,2 km/h (1 Bft) W 0,03 h 0,152 mm 2,6 UV-I 318 W/m 14,7 C 17,5 C 8,6 km/h (2 Bft) 97,76 %
06.08.2016 13:00 19,1 C 78 % 1024,5 hPa 0,0 l/m 5,8 km/h (1 Bft) NW 0,57 h 0,178 mm 4,7 UV-I 631 W/m 15,1 C 18,8 C 12,0 km/h (2 Bft) 99,57 %
06.08.2016 14:00 20,6 C 72 % 1024,2 hPa 0,0 l/m 5,8 km/h (2 Bft) W 0,87 h 0,381 mm 4,8 UV-I 784 W/m 15,3 C 20,5 C 12,6 km/h (3 Bft) 98,00 %
06.08.2016 15:00 21,2 C 68 % 1024,1 hPa 0,0 l/m 5,2 km/h (1 Bft) W-NW 0,67 h 0,432 mm 3,5 UV-I 581 W/m 14,9 C 20,9 C 11,1 km/h (2 Bft) 99,60 %
06.08.2016 16:00 21,0 C 67 % 1024,0 hPa 0,0 l/m 9,7 km/h (2 Bft) W-SW 0,63 h 0,356 mm 2,3 UV-I 423 W/m 14,8 C 19,8 C 16,0 km/h (3 Bft) 98,43 %
06.08.2016 17:00 20,7 C 70 % 1024,0 hPa 0,0 l/m 12,3 km/h (3 Bft) SW 0,63 h 0,279 mm 1,3 UV-I 318 W/m 15,1 C 18,8 C 19,8 km/h (3 Bft) 99,35 %
06.08.2016 18:00 19,7 C 71 % 1024,1 hPa 0,0 l/m 9,3 km/h (2 Bft) S-SW 0,00 h 0,229 mm 0,5 UV-I 40 W/m 14,2 C 18,6 C 15,2 km/h (3 Bft) 97,85 %
06.08.2016 19:00 18,5 C 80 % 1024,4 hPa 0,4 l/m 5,7 km/h (1 Bft) SW 0,00 h 0,076 mm 0,0 UV-I 15 W/m 14,9 C 18,4 C 9,3 km/h (2 Bft) 99,17 %
06.08.2016 20:00 18,0 C 81 % 1025,0 hPa 0,0 l/m 5,9 km/h (2 Bft) S-SW 0,00 h 0,025 mm 0,0 UV-I 12 W/m 14,7 C 18,0 C 9,0 km/h (2 Bft) 97,96 %
06.08.2016 21:00 17,5 C 81 % 1025,7 hPa 0,0 l/m 7,6 km/h (2 Bft) SW 0,00 h 0,026 mm 0,0 UV-I 0 W/m 14,3 C 16,8 C 11,9 km/h (2 Bft) 99,50 %
06.08.2016 22:00 16,5 C 85 % 1026,1 hPa 0,0 l/m 9,5 km/h (2 Bft) SW 0,00 h 0,025 mm 0,0 UV-I 0 W/m 13,9 C 15,0 C 14,6 km/h (3 Bft) 98,08 %
06.08.2016 23:00 16,4 C 85 % 1026,2 hPa 0,0 l/m 8,4 km/h (2 Bft) W-SW 0,00 h 0,025 mm 0,0 UV-I 0 W/m 13,8 C 15,4 C 13,2 km/h (3 Bft) 99,49 %
07.08.2016 00:00 16,8 C 85 % 1026,6 hPa 0,0 l/m 8,6 km/h (2 Bft) W-SW 0,00 h 0,000 mm 0,0 UV-I 0 W/m 14,1 C 15,7 C 13,5 km/h (3 Bft) 94,38 %
07.08.2016 01:00 16,2 C 88 % 1026,7 hPa 0,0 l/m 6,0 km/h (2 Bft) SW 0,00 h 0,025 mm 0,0 UV-I 0 W/m 14,1 C 16,1 C 9,3 km/h (2 Bft) 99,59 %
07.08.2016 02:00 15,3 C 89 % 1026,5 hPa 0,0 l/m 4,0 km/h (1 Bft) SW 0,00 h 0,000 mm 0,0 UV-I 0 W/m 13,5 C 15,3 C 6,3 km/h (2 Bft) 98,24 %
07.08.2016 03:00 13,8 C 93 % 1026,6 hPa 0,0 l/m 1,3 km/h (1 Bft) S 0,00 h 0,000 mm 0,0 UV-I 0 W/m 12,8 C 13,8 C 2,7 km/h (1 Bft) 99,32 %
07.08.2016 04:00 13,2 C 95 % 1026,7 hPa 0,0 l/m 1,1 km/h (1 Bft) SW 0,00 h 0,000 mm 0,0 UV-I 0 W/m 12,4 C 13,2 C 2,3 km/h (1 Bft) 98,23 %
07.08.2016 05:00 12,9 C 95 % 1026,7 hPa 0,0 l/m 3,1 km/h (1 Bft) S-SW 0,00 h 0,000 mm 0,0 UV-I 7 W/m 12,2 C 12,9 C 4,9 km/h (1 Bft) 99,44 %
07.08.2016 06:00 13,4 C 94 % 1027,0 hPa 0,0 l/m 2,4 km/h (1 Bft) SW 0,03 h 0,000 mm 0,0 UV-I 28 W/m 12,5 C 13,4 C 4,0 km/h (1 Bft) 97,52 %
07.08.2016 07:00 14,7 C 92 % 1027,5 hPa 0,0 l/m 4,8 km/h (1 Bft) W-SW 0,83 h 0,026 mm 0,5 UV-I 174 W/m 13,5 C 14,6 C 8,8 km/h (2 Bft) 98,98 %
07.08.2016 08:00 16,6 C 86 % 1027,8 hPa 0,0 l/m 6,6 km/h (2 Bft) W-SW 1,00 h 0,101 mm 1,1 UV-I 308 W/m 14,1 C 16,1 C 11,3 km/h (2 Bft) 97,71 %
07.08.2016 09:00 18,1 C 81 % 1027,9 hPa 0,0 l/m 6,2 km/h (2 Bft) W-SW 1,00 h 0,178 mm 2,4 UV-I 471 W/m 14,7 C 17,7 C 11,0 km/h (2 Bft) 99,46 %
07.08.2016 10:00 19,5 C 75 % 1027,7 hPa 0,0 l/m 6,4 km/h (2 Bft) W-SW 0,93 h 0,280 mm 3,7 UV-I 652 W/m 15,0 C 19,1 C 11,7 km/h (2 Bft) 98,22 %
07.08.2016 11:00 20,9 C 68 % 1027,4 hPa 0,0 l/m 7,1 km/h (2 Bft) W-SW 0,83 h 0,381 mm 5,1 UV-I 713 W/m 14,6 C 20,4 C 13,2 km/h (3 Bft) 99,23 %
07.08.2016 12:00 22,0 C 61 % 1027,0 hPa 0,0 l/m 6,9 km/h (2 Bft) W-SW 0,90 h 0,457 mm 6,0 UV-I 832 W/m 14,0 C 21,6 C 13,0 km/h (3 Bft) 98,22 %
07.08.2016 13:00 22,8 C 54 % 1026,6 hPa 0,0 l/m 7,2 km/h (2 Bft) W-SW 0,97 h 0,508 mm 6,3 UV-I 864 W/m 12,9 C 22,4 C 13,4 km/h (3 Bft) 99,31 %
07.08.2016 14:00 23,1 C 50 % 1026,2 hPa 0,0 l/m 7,1 km/h (2 Bft) W 0,83 h 0,559 mm 5,1 UV-I 722 W/m 12,2 C 22,7 C 12,5 km/h (3 Bft) 98,44 %
07.08.2016 15:00 23,7 C 47 % 1025,7 hPa 0,0 l/m 7,4 km/h (2 Bft) W-SW 0,90 h 0,482 mm 4,2 UV-I 677 W/m 11,8 C 23,2 C 13,7 km/h (3 Bft) 99,32 %
07.08.2016 16:00 23,9 C 44 % 1025,2 hPa 0,0 l/m 8,0 km/h (2 Bft) W-SW 1,00 h 0,483 mm 2,9 UV-I 592 W/m 11,1 C 23,4 C 13,9 km/h (3 Bft) 98,40 %
07.08.2016 17:00 24,0 C 44 % 1024,7 hPa 0,0 l/m 5,6 km/h (1 Bft) W 1,00 h 0,432 mm 1,6 UV-I 431 W/m 10,9 C 23,7 C 9,9 km/h (2 Bft) 98,96 %
07.08.2016 18:00 23,7 C 44 % 1024,2 hPa 0,0 l/m 5,3 km/h (1 Bft) W-SW 1,00 h 0,304 mm 0,7 UV-I 257 W/m 10,9 C 23,6 C 8,7 km/h (2 Bft) 98,56 %
07.08.2016 19:00 23,0 C 50 % 1023,8 hPa 0,0 l/m 1,5 km/h (1 Bft) W-SW 0,47 h 0,204 mm 0,0 UV-I 81 W/m 12,1 C 23,0 C 3,1 km/h (1 Bft) 98,75 %
07.08.2016 20:00 20,0 C 67 % 1023,6 hPa 0,0 l/m 0,2 km/h (0 Bft) W-SW 0,03 h 0,076 mm 0,0 UV-I 11 W/m 13,5 C 20,0 C 0,9 km/h (0 Bft) 98,65 %
07.08.2016 21:00 17,4 C 76 % 1023,8 hPa 0,0 l/m 1,0 km/h (0 Bft) W-SW 0,00 h 0,000 mm 0,0 UV-I 0 W/m 13,2 C 17,4 C 2,1 km/h (1 Bft) 98,65 %
07.08.2016 22:00 16,6 C 79 % 1023,8 hPa 0,0 l/m 3,4 km/h (1 Bft) S 0,00 h 0,000 mm 0,0 UV-I 0 W/m 12,9 C 16,6 C 5,3 km/h (1 Bft) 98,50 %
07.08.2016 23:00 16,1 C 81 % 1023,6 hPa 0,0 l/m 4,8 km/h (1 Bft) S 0,00 h 0,025 mm 0,0 UV-I 0 W/m 12,7 C 16,1 C 6,4 km/h (2 Bft) 98,38 %
Min-Datum _ 02.08.16 04.08.16 05.08.16 - 01.08.16 - - - - - 07.08.16 05.08.16 01.08.16 07.08.16
_ Min-Zeit 05:44 17:34 01:02 - 20:10 - - - - - 14:56 23:12 20:10 00:02
Minimum _ 11,5 C 41 % 1004,5 hPa - 0,0 km/h (0 Bft) - - - - - 9,9 C 7,7 C 0,0 km/h (0 Bft) 10,00 %
Max-Datum _ 04.08.16 03.08.16 07.08.16 05.08.16 05.08.16 - 02.08.16 07.08.16 07.08.16 02.08.16 04.08.16 04.08.16 05.08.16 01.08.16
_ Max-Zeit 16:44 01:52 09:22 23:36 03:24 - 16:40 14:00 13:16 13:24 14:20 16:44 03:06 00:02
Maximum _ 29,7 C 96 % 1028,0 hPa 3,4 l/m 34,3 km/h
W-SW (5 Bft)
- 0,08 h 0,559 mm 6,8 UV-I 1154 W/m 20,1 C 29,7 C 49,9 km/h
W-SW (6 Bft)
100,00 %
Durchschnitt _ 19,1 C 77 % 1017,4 hPa #36,0 l/m 6,4 km/h (2 Bft) W-SW #49:17 h #23,952 mm 2,7 UV-I 305 W/m 14,6 C 18,5 C 10,8 km/h (2 Bft) 98,67 %